createdAt,value
2019-02-15T00:01:06.984Z,99.90
2019-02-15T00:03:34.610Z,99.90
2019-02-15T00:06:02.603Z,99.90
2019-02-15T00:08:30.788Z,99.90
2019-02-15T00:10:58.733Z,99.90
2019-02-15T00:13:26.387Z,99.90
2019-02-15T00:15:54.466Z,99.90
2019-02-15T00:18:50.884Z,99.90
2019-02-15T00:21:20.643Z,99.90
2019-02-15T00:23:48.261Z,99.90
2019-02-15T00:26:16.835Z,99.90
2019-02-15T00:28:44.373Z,99.90
2019-02-15T00:31:14.712Z,99.90
2019-02-15T00:33:42.404Z,99.90
2019-02-15T00:36:10.049Z,99.90
2019-02-15T00:38:37.645Z,99.90
2019-02-15T00:41:05.255Z,99.90
2019-02-15T00:43:32.875Z,99.90
2019-02-15T00:46:09.606Z,99.90
2019-02-15T00:48:37.542Z,99.90
2019-02-15T00:51:18.047Z,99.90
2019-02-15T00:53:57.859Z,99.90
2019-02-15T00:56:43.625Z,99.90
2019-02-15T00:59:28.003Z,99.90
2019-02-15T01:02:18.245Z,99.90
2019-02-15T01:05:03.850Z,99.90
2019-02-15T01:07:53.936Z,99.90
2019-02-15T01:10:32.557Z,99.90
2019-02-15T01:13:05.042Z,99.90
2019-02-15T01:15:32.926Z,99.90
2019-02-15T01:18:00.569Z,99.90
2019-02-15T01:20:28.182Z,99.90
2019-02-15T01:22:55.655Z,99.90
2019-02-15T01:25:24.161Z,99.90
2019-02-15T01:28:03.066Z,99.90
2019-02-15T01:31:02.023Z,99.90
2019-02-15T01:33:49.097Z,99.90
2019-02-15T01:36:36.781Z,99.90
2019-02-15T01:39:33.834Z,99.90
2019-02-15T01:42:20.894Z,99.90
2019-02-15T01:44:53.223Z,99.90
2019-02-15T01:47:24.290Z,99.90
2019-02-15T01:49:51.920Z,99.90
2019-02-15T01:52:19.526Z,99.90
2019-02-15T01:54:47.117Z,99.90
2019-02-15T01:57:14.716Z,99.90
2019-02-15T01:59:42.296Z,99.90
2019-02-15T02:02:10.396Z,99.90
2019-02-15T02:04:38.681Z,99.90
2019-02-15T02:07:06.320Z,99.90
2019-02-15T02:09:34.223Z,99.90
2019-02-15T02:12:02.994Z,99.90
2019-02-15T02:14:32.090Z,99.90
2019-02-15T02:17:00.054Z,99.90
2019-02-15T02:19:28.538Z,99.90
2019-02-15T02:21:56.087Z,99.40
2019-02-15T02:24:23.959Z,99.60
2019-02-15T02:26:51.566Z,99.90
2019-02-15T02:29:20.426Z,99.90
2019-02-15T02:31:47.980Z,99.90
2019-02-15T02:34:15.938Z,99.90
2019-02-15T02:36:53.919Z,99.90
2019-02-15T02:39:22.126Z,99.90
2019-02-15T02:41:49.717Z,99.90
2019-02-15T02:44:18.045Z,99.90
2019-02-15T02:46:45.909Z,99.90
2019-02-15T02:49:14.016Z,99.90
2019-02-15T02:51:41.553Z,99.90
2019-02-15T02:54:09.242Z,99.90
2019-02-15T02:56:37.055Z,99.90
2019-02-15T02:59:09.069Z,99.90
2019-02-15T03:01:36.649Z,99.90
2019-02-15T03:04:04.415Z,99.90
2019-02-15T03:06:33.005Z,99.90
2019-02-15T03:09:00.616Z,99.90
2019-02-15T03:16:44.983Z,99.90
2019-02-15T03:19:12.530Z,99.90
2019-02-15T03:21:40.010Z,99.90
2019-02-15T03:24:08.029Z,99.90
2019-02-15T03:26:35.351Z,99.90
2019-02-15T03:29:02.789Z,99.90
2019-02-15T03:31:30.501Z,99.90
2019-02-15T03:33:57.965Z,99.90
2019-02-15T03:36:44.799Z,99.90
2019-02-15T03:39:22.183Z,99.90
2019-02-15T03:41:49.481Z,99.90
2019-02-15T03:44:22.132Z,99.90
2019-02-15T03:46:46.092Z,99.90
2019-02-15T03:49:13.702Z,99.90
2019-02-15T03:51:41.612Z,99.90
2019-02-15T03:54:09.526Z,99.90
2019-02-15T03:56:36.853Z,99.90
2019-02-15T03:59:04.262Z,99.90
2019-02-15T04:01:31.636Z,99.90
2019-02-15T04:03:59.043Z,99.90
2019-02-15T04:06:26.464Z,99.90
2019-02-15T04:08:53.974Z,99.90
2019-02-15T04:11:21.428Z,99.90
2019-02-15T04:13:48.810Z,99.90
2019-02-15T04:16:16.158Z,99.90
2019-02-15T04:18:43.685Z,99.90
2019-02-15T04:21:11.637Z,99.90
2019-02-15T04:23:39.050Z,99.90
2019-02-15T04:26:06.385Z,99.90
2019-02-15T04:28:33.715Z,99.90
2019-02-15T04:31:01.158Z,99.90
2019-02-15T04:33:28.771Z,99.90
2019-02-15T04:35:56.271Z,99.90
2019-02-15T04:38:23.695Z,99.90
2019-02-15T04:40:51.104Z,99.90
2019-02-15T04:43:18.832Z,99.90
2019-02-15T04:45:47.059Z,99.90
2019-02-15T04:48:14.723Z,99.90
2019-02-15T04:50:42.436Z,99.90
2019-02-15T04:53:09.868Z,99.90
2019-02-15T04:55:37.289Z,99.90
2019-02-15T04:58:04.702Z,99.90
2019-02-15T05:00:32.249Z,99.90
2019-02-15T05:02:59.638Z,99.90
2019-02-15T05:05:26.947Z,99.90
2019-02-15T05:07:54.220Z,99.90
2019-02-15T05:10:21.546Z,99.90
2019-02-15T05:12:49.129Z,99.90
2019-02-15T05:15:16.465Z,99.90
2019-02-15T05:17:43.732Z,99.90
2019-02-15T05:20:11.362Z,99.90
2019-02-15T05:22:38.904Z,99.90
2019-02-15T05:25:06.333Z,99.90
2019-02-15T05:27:33.620Z,99.90
2019-02-15T05:30:00.986Z,99.90
2019-02-15T05:32:28.893Z,99.90
2019-02-15T05:34:56.236Z,99.90
2019-02-15T05:37:23.503Z,99.90
2019-02-15T05:39:51.212Z,99.90
2019-02-15T05:42:18.516Z,99.90
2019-02-15T05:44:46.143Z,99.90
2019-02-15T05:47:13.424Z,99.90
2019-02-15T05:49:40.775Z,99.90
2019-02-15T05:52:08.685Z,99.90
2019-02-15T05:54:36.270Z,99.90
2019-02-15T05:57:03.561Z,99.90
2019-02-15T05:59:31.226Z,99.90
2019-02-15T06:01:58.574Z,99.90
2019-02-15T06:04:25.895Z,99.90
2019-02-15T06:06:53.468Z,99.90
2019-02-15T06:09:20.774Z,99.90
2019-02-15T06:11:48.382Z,99.90
2019-02-15T06:14:15.712Z,99.90
2019-02-15T06:16:43.056Z,99.90
2019-02-15T06:19:10.644Z,99.90
2019-02-15T06:21:37.980Z,99.90
2019-02-15T06:24:05.561Z,99.90
2019-02-15T06:26:32.883Z,99.90
2019-02-15T06:29:00.303Z,99.90
2019-02-15T06:31:27.904Z,99.90
2019-02-15T06:33:55.206Z,99.90
2019-02-15T06:36:23.711Z,99.90
2019-02-15T06:38:51.345Z,99.90
2019-02-15T06:41:18.975Z,99.90
2019-02-15T06:43:46.336Z,99.90
2019-02-15T06:46:13.957Z,99.90
2019-02-15T06:48:41.600Z,99.90
2019-02-15T06:51:08.947Z,99.90
2019-02-15T06:53:36.257Z,99.90
2019-02-15T06:56:03.636Z,99.90
2019-02-15T06:58:31.895Z,99.90
2019-02-15T07:01:24.980Z,99.90
2019-02-15T07:04:05.836Z,99.90
2019-02-15T07:06:33.196Z,99.90
2019-02-15T07:09:00.520Z,99.90
2019-02-15T07:11:27.924Z,99.90
2019-02-15T07:13:55.237Z,99.90
2019-02-15T07:16:22.923Z,99.90
2019-02-15T07:18:50.559Z,99.90
2019-02-15T07:21:18.249Z,99.90
2019-02-15T07:23:45.524Z,99.90
2019-02-15T07:26:12.943Z,99.90
2019-02-15T07:28:40.313Z,99.90
2019-02-15T07:31:07.726Z,99.90
2019-02-15T07:33:35.131Z,99.90
2019-02-15T07:36:02.606Z,99.90
2019-02-15T07:38:30.204Z,99.90
2019-02-15T07:40:57.613Z,99.90
2019-02-15T07:43:25.289Z,99.90
2019-02-15T07:45:52.665Z,98.60
2019-02-15T07:48:20.088Z,97.70
2019-02-15T07:50:47.789Z,98.10
2019-02-15T07:53:15.296Z,96.50
2019-02-15T07:55:42.870Z,94.70
2019-02-15T07:58:10.308Z,94.50
2019-02-15T08:00:37.905Z,91.50
2019-02-15T08:03:05.292Z,89.50
2019-02-15T08:05:32.623Z,77.30
2019-02-15T08:07:59.987Z,78.40
2019-02-15T08:10:27.588Z,80.60
2019-02-15T08:12:55.007Z,83.80
2019-02-15T08:15:22.311Z,79.90
2019-02-15T08:17:49.666Z,79.40
2019-02-15T08:20:17.025Z,77.10
2019-02-15T08:22:44.680Z,78.60
2019-02-15T08:25:11.966Z,75.00
2019-02-15T08:27:39.374Z,73.80
2019-02-15T08:30:08.038Z,75.70
2019-02-15T08:32:35.784Z,76.80
2019-02-15T08:35:03.164Z,70.80
2019-02-15T08:37:30.577Z,69.70
2019-02-15T08:39:58.161Z,71.70
2019-02-15T08:42:25.818Z,72.00
2019-02-15T08:44:53.128Z,68.10
2019-02-15T08:47:20.512Z,68.30
2019-02-15T08:49:48.125Z,68.60
2019-02-15T08:52:15.498Z,68.10
2019-02-15T08:54:43.086Z,69.40
2019-02-15T08:57:10.729Z,69.30
2019-02-15T08:59:38.319Z,65.50
2019-02-15T09:02:13.435Z,75.30
2019-02-15T09:04:40.808Z,66.10
2019-02-15T09:07:08.200Z,68.40
2019-02-15T09:09:39.144Z,66.80
2019-02-15T09:12:06.620Z,66.80
2019-02-15T09:14:34.262Z,67.40
2019-02-15T09:17:01.597Z,66.80
2019-02-15T09:19:29.321Z,65.00
2019-02-15T09:21:56.683Z,63.30
2019-02-15T09:24:24.285Z,73.90
2019-02-15T09:26:51.645Z,64.30
2019-02-15T09:29:19.292Z,77.90
2019-02-15T09:31:47.362Z,64.50
2019-02-15T09:34:14.690Z,59.80
2019-02-15T09:36:42.353Z,59.30
2019-02-15T09:39:09.957Z,66.40
2019-02-15T09:41:37.604Z,61.00
2019-02-15T09:44:05.277Z,59.80
2019-02-15T09:46:32.815Z,57.20
2019-02-15T09:49:00.210Z,57.10
2019-02-15T09:51:27.528Z,61.80
2019-02-15T09:53:55.118Z,62.90
2019-02-15T09:56:22.435Z,64.30
2019-02-15T09:58:49.835Z,63.20
2019-02-15T10:01:17.894Z,57.70
2019-02-15T10:03:45.352Z,57.30
2019-02-15T10:06:13.072Z,56.10
2019-02-15T10:08:40.703Z,56.50
2019-02-15T10:11:08.025Z,57.30
2019-02-15T10:13:35.585Z,60.10
2019-02-15T10:16:02.901Z,60.10
2019-02-15T10:18:30.810Z,55.10
2019-02-15T10:20:58.467Z,53.60
2019-02-15T10:23:25.749Z,55.00
2019-02-15T10:25:53.370Z,54.40
2019-02-15T10:28:20.239Z,57.60
2019-02-15T10:30:47.148Z,53.30
2019-02-15T10:33:14.204Z,51.50
2019-02-15T10:35:41.254Z,52.70
2019-02-15T10:38:08.028Z,53.50
2019-02-15T10:40:35.042Z,51.80
2019-02-15T10:43:02.097Z,51.20
2019-02-15T10:45:28.900Z,51.50
2019-02-15T10:47:55.643Z,50.90
2019-02-15T10:50:22.998Z,50.90
2019-02-15T10:52:50.395Z,51.00
2019-02-15T10:55:17.989Z,51.40
2019-02-15T10:57:45.297Z,50.50
2019-02-15T11:00:16.940Z,51.00
2019-02-15T11:02:44.932Z,49.70
2019-02-15T11:05:12.338Z,48.80
2019-02-15T11:07:39.664Z,48.90
2019-02-15T11:10:07.276Z,48.60
2019-02-15T11:12:34.624Z,51.70
2019-02-15T11:15:02.188Z,49.30
2019-02-15T11:17:30.109Z,48.00
2019-02-15T11:19:57.420Z,46.50
2019-02-15T11:22:24.723Z,48.80
2019-02-15T11:24:52.026Z,45.20
2019-02-15T11:27:19.680Z,45.30
2019-02-15T11:29:46.960Z,46.60
2019-02-15T11:32:14.901Z,45.70
2019-02-15T11:34:42.216Z,42.40
2019-02-15T11:37:09.520Z,42.20
2019-02-15T11:39:37.088Z,41.00
2019-02-15T11:42:04.422Z,40.80
2019-02-15T11:44:32.128Z,43.30
2019-02-15T11:46:59.500Z,42.50
2019-02-15T11:49:27.175Z,39.60
2019-02-15T11:51:54.582Z,41.60
2019-02-15T11:54:23.766Z,39.50
2019-02-15T11:56:51.269Z,37.90
2019-02-15T11:59:18.545Z,37.80
2019-02-15T12:01:45.916Z,38.70
2019-02-15T12:04:12.944Z,42.70
2019-02-15T12:06:39.716Z,39.10
2019-02-15T12:09:06.646Z,38.00
2019-02-15T12:11:34.352Z,38.90
2019-02-15T12:14:01.996Z,40.30
2019-02-15T12:16:29.856Z,36.30
2019-02-15T12:18:57.901Z,35.20
2019-02-15T12:21:25.618Z,37.50
2019-02-15T12:23:52.957Z,37.70
2019-02-15T12:26:20.312Z,34.90
2019-02-15T12:28:48.336Z,35.90
2019-02-15T12:31:15.884Z,35.30
2019-02-15T12:33:43.223Z,33.80
2019-02-15T12:36:10.562Z,33.40
2019-02-15T12:38:38.161Z,32.70
2019-02-15T12:41:05.495Z,37.40
2019-02-15T12:43:33.680Z,35.40
2019-02-15T12:46:00.985Z,33.70
2019-02-15T12:48:28.747Z,36.30
2019-02-15T12:50:56.029Z,34.60
2019-02-15T12:53:23.372Z,34.30
2019-02-15T12:55:50.664Z,35.70
2019-02-15T12:58:18.280Z,32.10
2019-02-15T13:00:45.574Z,31.10
2019-02-15T13:03:13.150Z,29.50
2019-02-15T13:05:40.498Z,30.60
2019-02-15T13:08:07.820Z,30.80
2019-02-15T13:10:37.305Z,33.10
2019-02-15T13:13:05.191Z,34.30
2019-02-15T13:15:32.781Z,32.20
2019-02-15T13:18:00.428Z,31.70
2019-02-15T13:20:27.814Z,33.10
2019-02-15T13:22:55.135Z,33.90
2019-02-15T13:25:22.433Z,29.90
2019-02-15T13:27:49.768Z,32.30
2019-02-15T13:30:17.085Z,29.70
2019-02-15T13:32:44.667Z,31.20
2019-02-15T13:35:12.716Z,29.30
2019-02-15T13:37:40.053Z,29.00
2019-02-15T13:40:07.797Z,29.80
2019-02-15T13:42:35.224Z,29.00
2019-02-15T13:45:02.569Z,29.20
2019-02-15T13:47:34.544Z,29.10
2019-02-15T13:49:59.400Z,29.20
2019-02-15T13:52:26.679Z,30.00
2019-02-15T13:54:53.997Z,29.40
2019-02-15T13:57:21.625Z,33.60
2019-02-15T13:59:48.974Z,33.20
2019-02-15T14:02:16.272Z,30.00
2019-02-15T14:05:09.628Z,28.00
2019-02-15T14:07:37.255Z,31.90
2019-02-15T14:10:05.708Z,28.70
2019-02-15T14:12:33.002Z,30.60
2019-02-15T14:15:00.925Z,31.10
2019-02-15T14:17:28.893Z,29.00
2019-02-15T14:19:56.244Z,31.90
2019-02-15T14:22:24.101Z,30.60
2019-02-15T14:24:51.796Z,30.00
2019-02-15T14:27:19.673Z,30.10
2019-02-15T14:29:46.980Z,31.30
2019-02-15T14:32:14.568Z,29.00
2019-02-15T14:34:41.908Z,28.40
2019-02-15T14:37:09.761Z,29.50
2019-02-15T14:39:37.249Z,31.10
2019-02-15T14:42:04.572Z,30.00
2019-02-15T14:44:31.928Z,31.10
2019-02-15T14:46:59.306Z,28.90
2019-02-15T14:49:26.653Z,29.90
2019-02-15T14:51:54.289Z,31.20
2019-02-15T14:54:21.685Z,29.40
2019-02-15T14:56:49.326Z,29.80
2019-02-15T14:59:16.909Z,29.60
2019-02-15T15:01:45.039Z,30.40
2019-02-15T15:04:12.400Z,29.40
2019-02-15T15:06:40.255Z,29.30
2019-02-15T15:09:08.178Z,30.20
2019-02-15T15:11:35.835Z,31.10
2019-02-15T15:14:03.442Z,29.80
2019-02-15T15:16:31.068Z,30.60
2019-02-15T15:18:58.615Z,32.40
2019-02-15T15:21:26.182Z,33.40
2019-02-15T15:23:53.856Z,31.00
2019-02-15T15:26:21.416Z,30.50
2019-02-15T15:28:49.059Z,30.00
2019-02-15T15:31:16.684Z,31.80
2019-02-15T15:33:44.058Z,31.20
2019-02-15T15:36:11.634Z,31.30
2019-02-15T15:38:39.270Z,32.50
2019-02-15T15:41:06.901Z,34.40
2019-02-15T15:43:34.503Z,32.00
2019-02-15T15:47:09.277Z,32.80
2019-02-15T15:48:36.225Z,33.80
2019-02-15T15:51:04.014Z,34.30
2019-02-15T15:53:31.618Z,33.60
2019-02-15T15:55:58.949Z,33.60
2019-02-15T15:58:26.576Z,33.40
2019-02-15T16:00:54.141Z,33.20
2019-02-15T16:03:21.473Z,34.40
2019-02-15T16:05:48.798Z,36.30
2019-02-15T16:08:16.096Z,35.60
2019-02-15T16:10:43.710Z,36.40
2019-02-15T16:13:11.820Z,36.30
2019-02-15T16:15:39.754Z,37.10
2019-02-15T16:18:07.377Z,38.70
2019-02-15T16:20:34.844Z,37.70
2019-02-15T16:23:10.971Z,40.60
2019-02-15T16:25:34.557Z,40.40
2019-02-15T16:28:02.220Z,42.90
2019-02-15T16:30:29.548Z,42.00
2019-02-15T16:32:57.161Z,41.60
2019-02-15T16:35:24.485Z,45.00
2019-02-15T16:37:52.087Z,44.30
2019-02-15T16:40:19.578Z,43.60
2019-02-15T16:42:47.672Z,44.50
2019-02-15T16:45:23.605Z,44.70
2019-02-15T16:47:52.352Z,45.20
2019-02-15T16:50:19.753Z,45.10
2019-02-15T16:52:47.073Z,45.60
2019-02-15T16:55:14.973Z,46.50
2019-02-15T16:57:42.366Z,46.00
2019-02-15T17:00:10.038Z,46.60
2019-02-15T17:02:37.650Z,47.10
2019-02-15T17:05:05.818Z,47.30
2019-02-15T17:07:33.121Z,47.70
2019-02-15T17:10:00.455Z,49.40
2019-02-15T17:12:28.045Z,50.40
2019-02-15T17:14:55.384Z,51.10
2019-02-15T17:17:34.820Z,51.50
2019-02-15T17:20:07.533Z,52.20
2019-02-15T17:22:38.720Z,54.30
2019-02-15T17:25:07.121Z,54.70
2019-02-15T17:27:35.015Z,53.60
2019-02-15T17:30:02.718Z,53.80
2019-02-15T17:32:30.156Z,53.90
2019-02-15T17:34:59.005Z,55.00
2019-02-15T17:37:26.664Z,55.40
2019-02-15T17:39:54.263Z,58.30
2019-02-15T17:42:22.013Z,56.30
2019-02-15T17:44:49.674Z,58.10
2019-02-15T17:47:17.374Z,57.90
2019-02-15T17:49:44.754Z,59.00
2019-02-15T17:52:12.710Z,60.20
2019-02-15T17:54:40.285Z,59.50
2019-02-15T17:57:08.192Z,61.30
2019-02-15T17:59:35.473Z,63.00
2019-02-15T18:02:02.996Z,63.60
2019-02-15T18:04:30.626Z,66.70
2019-02-15T18:06:57.956Z,70.80
2019-02-15T18:09:25.615Z,67.70
2019-02-15T18:11:53.025Z,65.80
2019-02-15T18:14:20.676Z,66.50
2019-02-15T18:16:48.252Z,66.30
2019-02-15T18:19:15.818Z,65.10
2019-02-15T18:21:43.127Z,71.20
2019-02-15T18:24:10.422Z,64.10
2019-02-15T18:26:38.044Z,66.40
2019-02-15T18:29:05.989Z,66.30
2019-02-15T18:31:33.607Z,70.40
2019-02-15T18:34:01.025Z,67.80
2019-02-15T18:36:28.935Z,66.60
2019-02-15T18:39:00.901Z,68.10
2019-02-15T18:42:03.630Z,73.60
2019-02-15T18:44:57.342Z,68.10
2019-02-15T18:47:25.610Z,68.80
2019-02-15T18:49:52.984Z,71.90
2019-02-15T18:52:20.346Z,73.50
2019-02-15T18:54:47.644Z,76.30
2019-02-15T18:57:15.257Z,75.70
2019-02-15T18:59:43.070Z,79.00
2019-02-15T19:02:10.801Z,81.00
2019-02-15T19:04:38.165Z,83.70
2019-02-15T19:07:05.499Z,83.00
2019-02-15T19:09:32.800Z,81.10
2019-02-15T19:12:00.169Z,82.40
2019-02-15T19:14:27.871Z,84.10
2019-02-15T19:16:55.232Z,87.10
2019-02-15T19:19:28.949Z,90.30
2019-02-15T19:21:52.128Z,87.30
2019-02-15T19:24:19.704Z,86.20
2019-02-15T19:26:47.312Z,88.50
2019-02-15T19:29:14.615Z,85.20
2019-02-15T19:31:48.081Z,77.80
2019-02-15T19:34:15.430Z,82.80
2019-02-15T19:36:42.806Z,77.30
2019-02-15T19:39:10.092Z,77.00
2019-02-15T19:41:37.436Z,75.20
2019-02-15T19:44:05.004Z,74.80
2019-02-15T19:46:32.664Z,76.20
2019-02-15T19:49:00.306Z,73.20
2019-02-15T19:51:27.664Z,73.60
2019-02-15T19:53:55.331Z,71.20
2019-02-15T19:56:22.693Z,72.30
2019-02-15T19:58:50.697Z,76.20
2019-02-15T20:01:19.758Z,73.00
2019-02-15T20:07:09.248Z,71.00
2019-02-15T20:09:36.732Z,76.30
2019-02-15T20:12:04.326Z,70.90
2019-02-15T20:14:32.281Z,69.70
2019-02-15T20:17:00.016Z,67.00
2019-02-15T20:19:28.196Z,74.10
2019-02-15T20:21:55.914Z,72.30
2019-02-15T20:24:23.526Z,73.30
2019-02-15T20:26:51.209Z,76.50
2019-02-15T20:29:18.808Z,69.00
2019-02-15T20:31:46.691Z,71.60
2019-02-15T20:34:15.230Z,71.20
2019-02-15T20:36:43.355Z,72.40
2019-02-15T20:39:10.946Z,72.00
2019-02-15T20:41:38.639Z,70.90
2019-02-15T20:44:06.673Z,72.70
2019-02-15T20:46:34.415Z,77.20
2019-02-15T20:49:04.621Z,75.30
2019-02-15T20:51:31.510Z,75.60
2019-02-15T20:54:03.516Z,79.60
2019-02-15T20:56:32.043Z,81.60
2019-02-15T20:59:00.023Z,84.30
2019-02-15T21:01:28.062Z,83.50
2019-02-15T21:03:56.154Z,81.20
2019-02-15T21:06:23.752Z,83.30
2019-02-15T21:08:51.722Z,86.60
2019-02-15T21:11:19.576Z,82.10
2019-02-15T21:13:47.282Z,82.70
2019-02-15T21:16:14.915Z,90.60
2019-02-15T21:18:50.707Z,88.70
2019-02-15T21:21:18.370Z,84.00
2019-02-15T21:23:46.374Z,83.50
2019-02-15T21:26:14.037Z,86.70
2019-02-15T21:28:41.683Z,78.80
2019-02-15T21:31:11.830Z,78.50
2019-02-15T21:33:40.082Z,81.80
2019-02-15T21:36:08.412Z,82.60
2019-02-15T21:38:36.714Z,86.40
2019-02-15T21:41:04.098Z,93.00
2019-02-15T21:43:32.110Z,84.80
2019-02-15T21:46:00.184Z,77.70
2019-02-15T21:48:27.747Z,74.60
2019-02-15T21:50:56.991Z,83.60
2019-02-15T21:53:24.545Z,79.30
2019-02-15T21:55:52.570Z,76.70
2019-02-15T21:58:20.038Z,77.70
2019-02-15T22:00:47.528Z,84.60
2019-02-15T22:03:15.708Z,78.00
2019-02-15T22:05:43.149Z,77.50
2019-02-15T22:08:10.939Z,72.00
2019-02-15T22:10:38.598Z,76.20
2019-02-15T22:13:06.118Z,74.90
2019-02-15T22:15:34.332Z,75.70
2019-02-15T22:18:01.891Z,76.70
2019-02-15T22:20:30.399Z,78.10
2019-02-15T22:22:57.898Z,75.60
2019-02-15T22:25:26.069Z,78.60
2019-02-15T22:27:54.242Z,92.40
2019-02-15T22:30:21.594Z,87.90
2019-02-15T22:32:49.443Z,83.80
2019-02-15T22:35:17.138Z,86.70
2019-02-15T22:37:44.719Z,91.30
2019-02-15T22:40:38.737Z,91.70
2019-02-15T22:43:15.291Z,90.50
2019-02-15T22:45:43.944Z,88.50
2019-02-15T22:48:12.744Z,87.70
2019-02-15T22:50:41.350Z,87.10
2019-02-15T22:53:09.165Z,92.20
2019-02-15T22:55:37.117Z,90.90
2019-02-15T22:58:05.840Z,91.50
2019-02-15T23:01:04.840Z,91.50
2019-02-15T23:03:32.382Z,92.00
2019-02-15T23:06:00.211Z,91.80
2019-02-15T23:08:27.914Z,92.60
2019-02-15T23:10:55.237Z,99.20
2019-02-15T23:13:22.581Z,89.50
2019-02-15T23:15:49.894Z,87.80
2019-02-15T23:18:18.906Z,94.80
2019-02-15T23:20:46.953Z,91.80
2019-02-15T23:23:14.335Z,91.60
2019-02-15T23:25:41.997Z,91.00
2019-02-15T23:28:09.473Z,89.00
2019-02-15T23:30:36.875Z,91.80
2019-02-15T23:33:04.526Z,90.10
2019-02-15T23:35:31.932Z,90.40
2019-02-15T23:37:59.278Z,91.70
2019-02-15T23:40:26.608Z,91.90
2019-02-15T23:42:54.686Z,92.50
2019-02-15T23:45:22.642Z,90.50
2019-02-15T23:47:50.275Z,91.00
2019-02-15T23:50:17.928Z,98.60
2019-02-15T23:52:45.573Z,91.20
2019-02-15T23:55:12.937Z,93.10
2019-02-15T23:57:42.120Z,94.30
